sensor_id;sensor_type;location;lat;lon;timestamp;pressure;altitude;pressure_sealevel;temperature;humidity
48624;BME280;75490;45.802;16.114;2024-01-07T00:00:49;64381.72;;;5.55;100.00
48624;BME280;75490;45.802;16.114;2024-01-07T00:03:16;64388.13;;;5.56;100.00
48624;BME280;75490;45.802;16.114;2024-01-07T00:05:43;64381.19;;;5.54;100.00
48624;BME280;75490;45.802;16.114;2024-01-07T00:08:10;64387.09;;;5.60;100.00
48624;BME280;75490;45.802;16.114;2024-01-07T00:10:37;64375.84;;;5.52;100.00
48624;BME280;75490;45.802;16.114;2024-01-07T00:13:03;64380.13;;;5.53;100.00
48624;BME280;75490;45.802;16.114;2024-01-07T00:15:30;64384.91;;;5.53;100.00
48624;BME280;75490;45.802;16.114;2024-01-07T00:17:57;64379.59;;;5.53;100.00
48624;BME280;75490;45.802;16.114;2024-01-07T00:20:24;64380.66;;;5.54;100.00
48624;BME280;75490;45.802;16.114;2024-01-07T00:22:51;64382.25;;;5.55;100.00
48624;BME280;75490;45.802;16.114;2024-01-07T00:25:18;64387.59;;;5.55;100.00
48624;BME280;75490;45.802;16.114;2024-01-07T00:27:45;64380.63;;;5.51;100.00
48624;BME280;75490;45.802;16.114;2024-01-07T00:30:12;64378.50;;;5.52;100.00
48624;BME280;75490;45.802;16.114;2024-01-07T00:32:39;64381.72;;;5.55;100.00
48624;BME280;75490;45.802;16.114;2024-01-07T00:35:06;64384.38;;;5.55;100.00
48624;BME280;75490;45.802;16.114;2024-01-07T00:37:33;64382.25;;;5.53;100.00
48624;BME280;75490;45.802;16.114;2024-01-07T00:40:01;64375.84;;;5.52;100.00
48624;BME280;75490;45.802;16.114;2024-01-07T00:42:28;64386.00;;;5.56;100.00
48624;BME280;75490;45.802;16.114;2024-01-07T00:44:55;64383.88;;;5.57;100.00
48624;BME280;75490;45.802;16.114;2024-01-07T00:47:21;64382.25;;;5.55;100.00
48624;BME280;75490;45.802;16.114;2024-01-07T00:49:48;64376.34;;;5.50;100.00
48624;BME280;75490;45.802;16.114;2024-01-07T00:52:15;64379.59;;;5.53;100.00
48624;BME280;75490;45.802;16.114;2024-01-07T00:54:42;64380.59;;;5.49;100.00
48624;BME280;75490;45.802;16.114;2024-01-07T00:57:10;64380.59;;;5.49;100.00
48624;BME280;75490;45.802;16.114;2024-01-07T00:59:38;64379.53;;;5.48;100.00
48624;BME280;75490;45.802;16.114;2024-01-07T01:02:05;64375.28;;;5.49;100.00
48624;BME280;75490;45.802;16.114;2024-01-07T01:04:32;64377.44;;;5.51;100.00
48624;BME280;75490;45.802;16.114;2024-01-07T01:06:58;64381.16;;;5.49;100.00
48624;BME280;75490;45.802;16.114;2024-01-07T01:09:28;64383.81;;;5.52;100.00
48624;BME280;75490;45.802;16.114;2024-01-07T01:11:54;64369.44;;;5.48;100.00
48624;BME280;75490;45.802;16.114;2024-01-07T01:14:21;64376.88;;;5.48;100.00
48624;BME280;75490;45.802;16.114;2024-01-07T01:16:48;64373.69;;;5.50;100.00
48624;BME280;75490;45.802;16.114;2024-01-07T01:19:15;64374.78;;;5.51;100.00
48624;BME280;75490;45.802;16.114;2024-01-07T01:21:42;64376.34;;;5.50;100.00
48624;BME280;75490;45.802;16.114;2024-01-07T01:24:09;64372.63;;;5.46;100.00
48624;BME280;75490;45.802;16.114;2024-01-07T01:26:36;64376.34;;;5.47;100.00
48624;BME280;75490;45.802;16.114;2024-01-07T01:29:03;64376.34;;;5.45;100.00
48624;BME280;75490;45.802;16.114;2024-01-07T01:31:29;64374.75;;;5.48;100.00
48624;BME280;75490;45.802;16.114;2024-01-07T01:33:56;64375.81;;;5.47;100.00
48624;BME280;75490;45.802;16.114;2024-01-07T01:36:23;64374.19;;;5.43;100.00
48624;BME280;75490;45.802;16.114;2024-01-07T01:38:50;64374.22;;;5.48;100.00
48624;BME280;75490;45.802;16.114;2024-01-07T01:41:18;64377.94;;;5.49;100.00
48624;BME280;75490;45.802;16.114;2024-01-07T01:43:45;64380.59;;;5.49;100.00
48624;BME280;75490;45.802;16.114;2024-01-07T01:46:12;64381.16;;;5.49;100.00
48624;BME280;75490;45.802;16.114;2024-01-07T01:48:41;64379.03;;;5.50;100.00
48624;BME280;75490;45.802;16.114;2024-01-07T01:51:08;64381.16;;;5.49;100.00
48624;BME280;75490;45.802;16.114;2024-01-07T01:53:36;64371.00;;;5.45;100.00
48624;BME280;75490;45.802;16.114;2024-01-07T01:56:04;64371.00;;;5.45;100.00
48624;BME280;75490;45.802;16.114;2024-01-07T01:58:32;64376.34;;;5.45;100.00
48624;BME280;75490;45.802;16.114;2024-01-07T02:00:59;64384.38;;;5.55;100.00
48624;BME280;75490;45.802;16.114;2024-01-07T02:03:26;64384.91;;;5.53;100.00
48624;BME280;75490;45.802;16.114;2024-01-07T02:05:53;64387.59;;;5.60;100.00
48624;BME280;75490;45.802;16.114;2024-01-07T02:08:20;64393.47;;;5.61;100.00
48624;BME280;75490;45.802;16.114;2024-01-07T02:10:47;64383.88;;;5.57;100.00
48624;BME280;75490;45.802;16.114;2024-01-07T02:13:14;64383.88;;;5.57;100.00
48624;BME280;75490;45.802;16.114;2024-01-07T02:15:41;64393.47;;;5.61;100.00
48624;BME280;75490;45.802;16.114;2024-01-07T02:18:09;64386.03;;;5.59;100.00
48624;BME280;75490;45.802;16.114;2024-01-07T02:20:35;64387.09;;;5.60;100.00
48624;BME280;75490;45.802;16.114;2024-01-07T02:23:04;64392.41;;;5.60;100.00
48624;BME280;75490;45.802;16.114;2024-01-07T02:25:37;64387.09;;;5.60;100.00
48624;BME280;75490;45.802;16.114;2024-01-07T02:28:05;64384.94;;;5.58;100.00
48624;BME280;75490;45.802;16.114;2024-01-07T02:30:31;64383.34;;;5.56;100.00
48624;BME280;75490;45.802;16.114;2024-01-07T02:33:02;64390.28;;;5.58;100.00
48624;BME280;75490;45.802;16.114;2024-01-07T02:35:32;64386.53;;;5.57;100.00
48624;BME280;75490;45.802;16.114;2024-01-07T02:37:59;64381.75;;;5.57;100.00
48624;BME280;75490;45.802;16.114;2024-01-07T02:40:26;64386.03;;;5.59;100.00
48624;BME280;75490;45.802;16.114;2024-01-07T02:42:52;64381.16;;;5.52;100.00
48624;BME280;75490;45.802;16.114;2024-01-07T02:45:19;64374.25;;;5.53;100.00
48624;BME280;75490;45.802;16.114;2024-01-07T02:47:46;64384.38;;;5.55;100.00
48624;BME280;75490;45.802;16.114;2024-01-07T02:50:13;64384.38;;;5.55;100.00
48624;BME280;75490;45.802;16.114;2024-01-07T02:52:40;64387.03;;;5.55;100.00
48624;BME280;75490;45.802;16.114;2024-01-07T02:55:07;64388.69;;;5.59;100.00
48624;BME280;75490;45.802;16.114;2024-01-07T02:57:34;64389.22;;;5.62;100.00
48624;BME280;75490;45.802;16.114;2024-01-07T03:00:01;64387.59;;;5.60;100.00
48624;BME280;75490;45.802;16.114;2024-01-07T03:02:29;64390.84;;;5.63;100.00
48624;BME280;75490;45.802;16.114;2024-01-07T03:04:56;64387.09;;;5.60;100.00
48624;BME280;75490;45.802;16.114;2024-01-07T03:07:23;64391.88;;;5.62;100.00
48624;BME280;75490;45.802;16.114;2024-01-07T03:09:50;64387.59;;;5.60;100.00
48624;BME280;75490;45.802;16.114;2024-01-07T03:12:17;64388.69;;;5.61;100.00
48624;BME280;75490;45.802;16.114;2024-01-07T03:14:44;64387.63;;;5.63;100.00
48624;BME280;75490;45.802;16.114;2024-01-07T03:17:11;64394.03;;;5.64;100.00
48624;BME280;75490;45.802;16.114;2024-01-07T03:19:38;64399.34;;;5.64;100.00
48624;BME280;75490;45.802;16.114;2024-01-07T03:22:04;64392.44;;;5.65;100.00
48624;BME280;75490;45.802;16.114;2024-01-07T03:24:33;64397.22;;;5.64;100.00
48624;BME280;75490;45.802;16.114;2024-01-07T03:27:00;64390.28;;;5.63;100.00
48624;BME280;75490;45.802;16.114;2024-01-07T03:29:27;64389.22;;;5.62;100.00
48624;BME280;75490;45.802;16.114;2024-01-07T03:31:54;64391.88;;;5.59;100.00
48624;BME280;75490;45.802;16.114;2024-01-07T03:34:20;64395.63;;;5.65;100.00
48624;BME280;75490;45.802;16.114;2024-01-07T03:36:47;64399.38;;;5.66;100.00
48624;BME280;75490;45.802;16.114;2024-01-07T03:39:14;64397.75;;;5.65;100.00
48624;BME280;75490;45.802;16.114;2024-01-07T03:41:41;64396.19;;;5.66;100.00
48624;BME280;75490;45.802;16.114;2024-01-07T03:44:08;64402.06;;;5.69;100.00
48624;BME280;75490;45.802;16.114;2024-01-07T03:46:34;64398.28;;;5.65;100.00
48624;BME280;75490;45.802;16.114;2024-01-07T03:49:01;64398.84;;;5.66;100.00
48624;BME280;75490;45.802;16.114;2024-01-07T03:51:28;64394.59;;;5.67;100.00
48624;BME280;75490;45.802;16.114;2024-01-07T03:53:55;64396.72;;;5.69;100.00
48624;BME280;75490;45.802;16.114;2024-01-07T03:56:21;64399.41;;;5.71;100.00
48624;BME280;75490;45.802;16.114;2024-01-07T03:58:48;64399.97;;;5.72;100.00
48624;BME280;75490;45.802;16.114;2024-01-07T04:01:16;64404.75;;;5.71;100.00
48624;BME280;75490;45.802;16.114;2024-01-07T04:03:43;64405.28;;;5.72;100.00
48624;BME280;75490;45.802;16.114;2024-01-07T04:06:10;64398.88;;;5.71;100.00
48624;BME280;75490;45.802;16.114;2024-01-07T04:08:36;64397.81;;;5.70;100.00
48624;BME280;75490;45.802;16.114;2024-01-07T04:11:03;64396.16;;;5.63;100.00
48624;BME280;75490;45.802;16.114;2024-01-07T04:13:30;64397.25;;;5.67;100.00
48624;BME280;75490;45.802;16.114;2024-01-07T04:15:57;64393.50;;;5.66;100.00
48624;BME280;75490;45.802;16.114;2024-01-07T04:18:23;64399.41;;;5.69;100.00
48624;BME280;75490;45.802;16.114;2024-01-07T04:20:50;64398.31;;;5.68;100.00
48624;BME280;75490;45.802;16.114;2024-01-07T04:23:17;64394.59;;;5.67;100.00
48624;BME280;75490;45.802;16.114;2024-01-07T04:25:44;64388.16;;;5.61;100.00
48624;BME280;75490;45.802;16.114;2024-01-07T04:28:11;64389.75;;;5.62;100.00
48624;BME280;75490;45.802;16.114;2024-01-07T04:30:38;64385.47;;;5.61;100.00
48624;BME280;75490;45.802;16.114;2024-01-07T04:33:05;64384.44;;;5.60;100.00
48624;BME280;75490;45.802;16.114;2024-01-07T04:35:32;64382.81;;;5.56;100.00
48624;BME280;75490;45.802;16.114;2024-01-07T04:37:58;64387.59;;;5.55;100.00
48624;BME280;75490;45.802;16.114;2024-01-07T04:40:25;64384.38;;;5.52;100.00
48624;BME280;75490;45.802;16.114;2024-01-07T04:42:52;64378.50;;;5.52;100.00
48624;BME280;75490;45.802;16.114;2024-01-07T04:45:19;64375.84;;;5.52;100.00
48624;BME280;75490;45.802;16.114;2024-01-07T04:47:46;64374.75;;;5.46;100.00
48624;BME280;75490;45.802;16.114;2024-01-07T04:50:12;64375.81;;;5.49;100.00
48624;BME280;75490;45.802;16.114;2024-01-07T04:52:41;64376.34;;;5.45;100.00
48624;BME280;75490;45.802;16.114;2024-01-07T04:55:08;64366.72;;;5.41;100.00
48624;BME280;75490;45.802;16.114;2024-01-07T04:57:36;64368.88;;;5.43;100.00
48624;BME280;75490;45.802;16.114;2024-01-07T05:00:03;64367.78;;;5.42;100.00
48624;BME280;75490;45.802;16.114;2024-01-07T05:02:30;64371.50;;;5.40;100.00
48624;BME280;75490;45.802;16.114;2024-01-07T05:04:57;64367.78;;;5.42;100.00
48624;BME280;75490;45.802;16.114;2024-01-07T05:07:24;64365.13;;;5.39;100.00
48624;BME280;75490;45.802;16.114;2024-01-07T05:09:51;64369.91;;;5.39;100.00
48624;BME280;75490;45.802;16.114;2024-01-07T05:12:17;64363.50;;;5.38;100.00
48624;BME280;75490;45.802;16.114;2024-01-07T05:14:44;64361.88;;;5.33;100.00
48624;BME280;75490;45.802;16.114;2024-01-07T05:17:12;64359.22;;;5.33;100.00
48624;BME280;75490;45.802;16.114;2024-01-07T05:19:40;64361.88;;;5.33;100.00
48624;BME280;75490;45.802;16.114;2024-01-07T05:22:07;64351.75;;;5.29;100.00
48624;BME280;75490;45.802;16.114;2024-01-07T05:24:37;64356.56;;;5.31;100.00
48624;BME280;75490;45.802;16.114;2024-01-07T05:27:05;64366.69;;;5.35;100.00
48624;BME280;75490;45.802;16.114;2024-01-07T05:29:32;64356.00;;;5.30;100.00
48624;BME280;75490;45.802;16.114;2024-01-07T05:32:02;64356.53;;;5.28;100.00
48624;BME280;75490;45.802;16.114;2024-01-07T05:34:29;64352.78;;;5.27;100.00
48624;BME280;75490;45.802;16.114;2024-01-07T05:36:56;64355.47;;;5.30;100.00
48624;BME280;75490;45.802;16.114;2024-01-07T05:39:23;64350.09;;;5.25;100.00
48624;BME280;75490;45.802;16.114;2024-01-07T05:41:49;64354.94;;;5.29;100.00
48624;BME280;75490;45.802;16.114;2024-01-07T05:44:16;64353.31;;;5.28;100.00
48624;BME280;75490;45.802;16.114;2024-01-07T05:46:43;64360.25;;;5.29;100.00
48624;BME280;75490;45.802;16.114;2024-01-07T05:49:10;64356.00;;;5.30;100.00
48624;BME280;75490;45.802;16.114;2024-01-07T05:51:39;64354.94;;;5.29;100.00
48624;BME280;75490;45.802;16.114;2024-01-07T05:54:06;64360.78;;;5.30;100.00
48624;BME280;75490;45.802;16.114;2024-01-07T05:56:38;64353.88;;;5.28;100.00
48624;BME280;75490;45.802;16.114;2024-01-07T05:59:06;64346.41;;;5.26;100.00
48624;BME280;75490;45.802;16.114;2024-01-07T06:01:33;64357.56;;;5.27;100.00
48624;BME280;75490;45.802;16.114;2024-01-07T06:04:00;64344.22;;;5.19;100.00
48624;BME280;75490;45.802;16.114;2024-01-07T06:06:26;64345.81;;;5.18;100.00
48624;BME280;75490;45.802;16.114;2024-01-07T06:08:53;64341.00;;;5.16;100.00
48624;BME280;75490;45.802;16.114;2024-01-07T06:11:20;64337.78;;;5.13;100.00
48624;BME280;75490;45.802;16.114;2024-01-07T06:13:47;64341.50;;;5.12;100.00
48624;BME280;75490;45.802;16.114;2024-01-07T06:16:13;64334.56;;;5.10;100.00
48624;BME280;75490;45.802;16.114;2024-01-07T06:18:40;64337.78;;;5.13;100.00
48624;BME280;75490;45.802;16.114;2024-01-07T06:21:07;64335.66;;;5.11;100.00
48624;BME280;75490;45.802;16.114;2024-01-07T06:23:34;64343.16;;;5.18;100.00
48624;BME280;75490;45.802;16.114;2024-01-07T06:26:05;64343.16;;;5.18;100.00
48624;BME280;75490;45.802;16.114;2024-01-07T06:28:32;64349.00;;;5.19;100.00
48624;BME280;75490;45.802;16.114;2024-01-07T06:31:02;64344.75;;;5.17;100.00
48624;BME280;75490;45.802;16.114;2024-01-07T06:33:29;64336.75;;;5.15;100.00
48624;BME280;75490;45.802;16.114;2024-01-07T06:35:56;64345.25;;;5.15;100.00
48624;BME280;75490;45.802;16.114;2024-01-07T06:38:23;64341.00;;;5.16;100.00
48624;BME280;75490;45.802;16.114;2024-01-07T06:40:51;64349.53;;;5.19;100.00
48624;BME280;75490;45.802;16.114;2024-01-07T06:43:17;64334.56;;;5.10;100.00
48624;BME280;75490;45.802;16.114;2024-01-07T06:45:45;64337.75;;;5.11;100.00
48624;BME280;75490;45.802;16.114;2024-01-07T06:48:12;64333.50;;;5.09;100.00
48624;BME280;75490;45.802;16.114;2024-01-07T06:50:38;64335.09;;;5.08;100.00
48624;BME280;75490;45.802;16.114;2024-01-07T06:53:05;64337.75;;;5.08;100.00
48624;BME280;75490;45.802;16.114;2024-01-07T06:55:32;64324.44;;;5.06;100.00
48624;BME280;75490;45.802;16.114;2024-01-07T06:57:59;64329.22;;;5.05;100.00
48624;BME280;75490;45.802;16.114;2024-01-07T07:00:25;64329.72;;;5.00;100.00
48624;BME280;75490;45.802;16.114;2024-01-07T07:02:52;64328.69;;;5.05;100.00
48624;BME280;75490;45.802;16.114;2024-01-07T07:05:19;64327.63;;;5.04;100.00
48624;BME280;75490;45.802;16.114;2024-01-07T07:07:46;64316.91;;;4.93;100.00
48624;BME280;75490;45.802;16.114;2024-01-07T07:10:13;64310.97;;;4.83;100.00
48624;BME280;75490;45.802;16.114;2024-01-07T07:12:39;64301.34;;;4.79;100.00
48624;BME280;75490;45.802;16.114;2024-01-07T07:15:06;64297.09;;;4.75;100.00
48624;BME280;75490;45.802;16.114;2024-01-07T07:17:38;64302.41;;;4.75;100.00
48624;BME280;75490;45.802;16.114;2024-01-07T07:20:06;64295.41;;;4.65;100.00
48624;BME280;75490;45.802;16.114;2024-01-07T07:22:33;64284.75;;;4.60;100.00
48624;BME280;75490;45.802;16.114;2024-01-07T07:25:00;64287.38;;;4.58;100.00
48624;BME280;75490;45.802;16.114;2024-01-07T07:27:26;64279.94;;;4.58;100.00
48624;BME280;75490;45.802;16.114;2024-01-07T07:29:53;64285.25;;;4.58;100.00
48624;BME280;75490;45.802;16.114;2024-01-07T07:32:20;64278.81;;;4.52;100.00
48624;BME280;75490;45.802;16.114;2024-01-07T07:34:47;64276.72;;;4.53;100.00
48624;BME280;75490;45.802;16.114;2024-01-07T07:37:13;64276.19;;;4.52;100.00
48624;BME280;75490;45.802;16.114;2024-01-07T07:39:40;64274.56;;;4.48;100.00
48624;BME280;75490;45.802;16.114;2024-01-07T07:42:07;64262.81;;;4.42;100.00
48624;BME280;75490;45.802;16.114;2024-01-07T07:44:34;64272.44;;;4.51;100.00
48624;BME280;75490;45.802;16.114;2024-01-07T07:47:00;64282.03;;;4.55;100.00
48624;BME280;75490;45.802;16.114;2024-01-07T07:49:27;64276.72;;;4.55;100.00
48624;BME280;75490;45.802;16.114;2024-01-07T07:51:55;64273.03;;;4.57;100.00
48624;BME280;75490;45.802;16.114;2024-01-07T07:54:22;64270.31;;;4.49;100.00
48624;BME280;75490;45.802;16.114;2024-01-07T07:56:48;64275.06;;;4.46;100.00
48624;BME280;75490;45.802;16.114;2024-01-07T07:59:15;64271.41;;;4.50;100.00
48624;BME280;75490;45.802;16.114;2024-01-07T08:01:42;64282.09;;;4.60;100.00
48624;BME280;75490;45.802;16.114;2024-01-07T08:04:09;64288.47;;;4.61;100.00
48624;BME280;75490;45.802;16.114;2024-01-07T08:06:37;64289.56;;;4.65;100.00
48624;BME280;75490;45.802;16.114;2024-01-07T08:09:05;64290.09;;;4.65;100.00
48624;BME280;75490;45.802;16.114;2024-01-07T08:11:32;64292.75;;;4.65;100.00
48624;BME280;75490;45.802;16.114;2024-01-07T08:13:59;64287.44;;;4.65;100.00
48624;BME280;75490;45.802;16.114;2024-01-07T08:16:25;64297.03;;;4.70;100.00
48624;BME280;75490;45.802;16.114;2024-01-07T08:18:52;64285.31;;;4.63;100.00
48624;BME280;75490;45.802;16.114;2024-01-07T08:21:23;64286.38;;;4.64;100.00
48624;BME280;75490;45.802;16.114;2024-01-07T08:23:49;64282.09;;;4.60;100.00
48624;BME280;75490;45.802;16.114;2024-01-07T08:26:19;64283.69;;;4.62;100.00
48624;BME280;75490;45.802;16.114;2024-01-07T08:28:46;64282.59;;;4.56;100.00
48624;BME280;75490;45.802;16.114;2024-01-07T08:31:14;64285.81;;;4.59;100.00
48624;BME280;75490;45.802;16.114;2024-01-07T08:33:41;64274.06;;;4.53;100.00
48624;BME280;75490;45.802;16.114;2024-01-07T08:36:08;64278.34;;;4.57;100.00
48624;BME280;75490;45.802;16.114;2024-01-07T08:38:35;64272.44;;;4.51;100.00
48624;BME280;75490;45.802;16.114;2024-01-07T08:41:02;64277.78;;;4.54;100.00
48624;BME280;75490;45.802;16.114;2024-01-07T08:43:29;64275.66;;;4.54;100.00
48624;BME280;75490;45.802;16.114;2024-01-07T08:45:55;64264.97;;;4.47;100.00
48624;BME280;75490;45.802;16.114;2024-01-07T08:48:22;64267.63;;;4.44;100.00
48624;BME280;75490;45.802;16.114;2024-01-07T08:50:49;64263.88;;;4.43;100.00
48624;BME280;75490;45.802;16.114;2024-01-07T08:53:17;64263.34;;;4.43;100.00
48624;BME280;75490;45.802;16.114;2024-01-07T08:55:45;64268.13;;;4.42;100.00
48624;BME280;75490;45.802;16.114;2024-01-07T08:58:11;64266.53;;;4.43;100.00
48624;BME280;75490;45.802;16.114;2024-01-07T09:00:38;64264.91;;;4.39;100.00
48624;BME280;75490;45.802;16.114;2024-01-07T09:03:05;64265.97;;;4.40;100.00
48624;BME280;75490;45.802;16.114;2024-01-07T09:05:33;64254.25;;;4.34;100.00
48624;BME280;75490;45.802;16.114;2024-01-07T09:08:00;64252.63;;;4.30;100.00
48624;BME280;75490;45.802;16.114;2024-01-07T09:10:27;64241.94;;;4.20;100.00
48624;BME280;75490;45.802;16.114;2024-01-07T09:12:54;64244.06;;;4.22;100.00
48624;BME280;75490;45.802;16.114;2024-01-07T09:15:22;64237.63;;;4.16;100.00
48624;BME280;75490;45.802;16.114;2024-01-07T09:17:49;64240.28;;;4.16;100.00
48624;BME280;75490;45.802;16.114;2024-01-07T09:20:16;64244.56;;;4.20;100.00
48624;BME280;75490;45.802;16.114;2024-01-07T09:22:43;64241.38;;;4.19;100.00
48624;BME280;75490;45.802;16.114;2024-01-07T09:25:10;64244.59;;;4.22;100.00
48624;BME280;75490;45.802;16.114;2024-01-07T09:27:37;64245.69;;;4.23;100.00
48624;BME280;75490;45.802;16.114;2024-01-07T09:30:04;64244.56;;;4.20;100.00
48624;BME280;75490;45.802;16.114;2024-01-07T09:32:33;64238.19;;;4.19;100.00
48624;BME280;75490;45.802;16.114;2024-01-07T09:35:00;64237.66;;;4.18;100.00
48624;BME280;75490;45.802;16.114;2024-01-07T09:37:26;64243.53;;;4.24;100.00
48624;BME280;75490;45.802;16.114;2024-01-07T09:39:53;64246.19;;;4.21;100.00
48624;BME280;75490;45.802;16.114;2024-01-07T09:42:20;64235.00;;;4.18;100.00
48624;BME280;75490;45.802;16.114;2024-01-07T09:44:47;64239.28;;;4.20;100.00
48624;BME280;75490;45.802;16.114;2024-01-07T09:47:16;64236.56;;;4.15;100.00
48624;BME280;75490;45.802;16.114;2024-01-07T09:49:43;64225.34;;;4.07;100.00
48624;BME280;75490;45.802;16.114;2024-01-07T09:52:11;64212.00;;;3.97;100.00
48624;BME280;75490;45.802;16.114;2024-01-07T09:54:39;64223.16;;;4.00;100.00
48624;BME280;75490;45.802;16.114;2024-01-07T09:57:07;64214.09;;;3.93;100.00
48624;BME280;75490;45.802;16.114;2024-01-07T09:59:35;64209.81;;;3.89;100.00
48624;BME280;75490;45.802;16.114;2024-01-07T10:02:05;64208.75;;;3.88;100.00
48624;BME280;75490;45.802;16.114;2024-01-07T10:04:32;64206.63;;;3.89;100.00
48624;BME280;75490;45.802;16.114;2024-01-07T10:06:59;64206.06;;;3.86;100.00
48624;BME280;75490;45.802;16.114;2024-01-07T10:09:30;64202.88;;;3.85;100.00
48624;BME280;75490;45.802;16.114;2024-01-07T10:11:59;64197.53;;;3.80;100.00
48624;BME280;75490;45.802;16.114;2024-01-07T10:14:26;64197.50;;;3.78;100.00
48624;BME280;75490;45.802;16.114;2024-01-07T10:16:53;64193.19;;;3.71;100.00
48624;BME280;75490;45.802;16.114;2024-01-07T10:19:23;64190.03;;;3.73;100.00
48624;BME280;75490;45.802;16.114;2024-01-07T10:24:37;64178.25;;;3.62;100.00
48624;BME280;75490;45.802;16.114;2024-01-07T10:27:06;64185.22;;;3.69;100.00
48624;BME280;75490;45.802;16.114;2024-01-07T10:29:33;64183.09;;;3.67;100.00
48624;BME280;75490;45.802;16.114;2024-01-07T10:32:01;64193.19;;;3.69;100.00
48624;BME280;75490;45.802;16.114;2024-01-07T10:34:35;64183.63;;;3.67;100.00
48624;BME280;75490;45.802;16.114;2024-01-07T10:37:04;64185.22;;;3.66;100.00
48624;BME280;75490;45.802;16.114;2024-01-07T10:39:34;64184.63;;;3.63;100.00
48624;BME280;75490;45.802;16.114;2024-01-07T10:42:02;64183.56;;;3.62;100.00
48624;BME280;75490;45.802;16.114;2024-01-07T10:44:32;64183.56;;;3.62;100.00
48624;BME280;75490;45.802;16.114;2024-01-07T10:47:00;64183.03;;;3.62;100.00
48624;BME280;75490;45.802;16.114;2024-01-07T10:49:30;64167.56;;;3.52;100.00
48624;BME280;75490;45.802;16.114;2024-01-07T10:52:04;64191.09;;;3.74;100.00
48624;BME280;75490;45.802;16.114;2024-01-07T10:54:34;64175.06;;;3.59;100.00
48624;BME280;75490;45.802;16.114;2024-01-07T11:00:19;64165.88;;;3.40;100.00
48624;BME280;75490;45.802;16.114;2024-01-07T11:08:01;64153.63;;;3.34;100.00
48624;BME280;75490;45.802;16.114;2024-01-07T11:10:51;64147.22;;;3.28;100.00
48624;BME280;75490;45.802;16.114;2024-01-07T11:13:36;64133.88;;;3.20;100.00
48624;BME280;75490;45.802;16.114;2024-01-07T11:16:09;64138.06;;;3.16;100.00
48624;BME280;75490;45.802;16.114;2024-01-07T11:18:40;64128.50;;;3.12;100.00
48624;BME280;75490;45.802;16.114;2024-01-07T11:21:20;64118.97;;;3.11;100.00
48624;BME280;75490;45.802;16.114;2024-01-07T11:23:47;64131.69;;;3.13;100.00
48624;BME280;75490;45.802;16.114;2024-01-07T11:26:14;64121.63;;;3.13;100.00
48624;BME280;75490;45.802;16.114;2024-01-07T11:34:08;64132.22;;;3.13;100.00
48624;BME280;75490;45.802;16.114;2024-01-07T11:36:36;64125.31;;;3.12;100.00
48624;BME280;75490;45.802;16.114;2024-01-07T11:39:04;64124.22;;;3.08;100.00
48624;BME280;75490;45.802;16.114;2024-01-07T11:41:33;64129.56;;;3.11;100.00
48624;BME280;75490;45.802;16.114;2024-01-07T11:44:00;64119.44;;;3.06;100.00
48624;BME280;75490;45.802;16.114;2024-01-07T11:46:27;64110.91;;;3.01;100.00
48624;BME280;75490;45.802;16.114;2024-01-07T11:49:01;64121.56;;;3.08;100.00
48624;BME280;75490;45.802;16.114;2024-01-07T11:51:29;64126.38;;;3.10;100.00
48624;BME280;75490;45.802;16.114;2024-01-07T11:53:59;64125.81;;;3.07;100.00
48624;BME280;75490;45.802;16.114;2024-01-07T11:56:27;64122.09;;;3.06;100.00
48624;BME280;75490;45.802;16.114;2024-01-07T11:58:54;64123.16;;;3.07;100.00
48624;BME280;75490;45.802;16.114;2024-01-07T12:01:23;64124.19;;;3.06;100.00
48624;BME280;75490;45.802;16.114;2024-01-07T12:03:50;64122.06;;;3.04;100.00
48624;BME280;75490;45.802;16.114;2024-01-07T12:06:17;64117.28;;;3.04;100.00
48624;BME280;75490;45.802;16.114;2024-01-07T12:08:43;64118.34;;;3.00;100.00
48624;BME280;75490;45.802;16.114;2024-01-07T12:11:12;64117.25;;;2.99;100.00
48624;BME280;75490;45.802;16.114;2024-01-07T12:13:40;64126.34;;;3.08;100.00
48624;BME280;75490;45.802;16.114;2024-01-07T12:16:08;64134.88;;;3.13;100.00
48624;BME280;75490;45.802;16.114;2024-01-07T12:18:39;64138.09;;;3.19;100.00
48624;BME280;75490;45.802;16.114;2024-01-07T12:21:06;64138.13;;;3.21;100.00
48624;BME280;75490;45.802;16.114;2024-01-07T12:23:36;64112.47;;;2.97;100.00
48624;BME280;75490;45.802;16.114;2024-01-07T12:26:10;64105.47;;;2.88;100.00
48624;BME280;75490;45.802;16.114;2024-01-07T12:28:38;64102.28;;;2.85;100.00
48624;BME280;75490;45.802;16.114;2024-01-07T12:31:06;64096.44;;;2.82;100.00
48624;BME280;75490;45.802;16.114;2024-01-07T12:33:34;64099.13;;;2.87;100.00
48624;BME280;75490;45.802;16.114;2024-01-07T12:36:01;64093.78;;;2.82;100.00
48624;BME280;75490;45.802;16.114;2024-01-07T12:38:28;64096.44;;;2.82;100.00
48624;BME280;75490;45.802;16.114;2024-01-07T12:40:55;64100.19;;;2.88;100.00
48624;BME280;75490;45.802;16.114;2024-01-07T12:43:22;64097.00;;;2.85;100.00
48624;BME280;75490;45.802;16.114;2024-01-07T12:45:49;64102.28;;;2.88;100.00
48624;BME280;75490;45.802;16.114;2024-01-07T12:48:16;64094.78;;;2.78;100.00
48624;BME280;75490;45.802;16.114;2024-01-07T12:50:43;64089.47;;;2.73;100.00
48624;BME280;75490;45.802;16.114;2024-01-07T12:53:10;64086.25;;;2.70;100.00
48624;BME280;75490;45.802;16.114;2024-01-07T12:55:37;64078.78;;;2.65;100.00
48624;BME280;75490;45.802;16.114;2024-01-07T12:58:21;64074.03;;;2.66;100.00
48624;BME280;75490;45.802;16.114;2024-01-07T13:00:48;64072.88;;;2.57;100.00
48624;BME280;75490;45.802;16.114;2024-01-07T13:03:15;64072.34;;;2.57;100.00
48624;BME280;75490;45.802;16.114;2024-01-07T13:05:46;64064.38;;;2.54;100.00
48624;BME280;75490;45.802;16.114;2024-01-07T13:08:17;64055.28;;;2.43;100.00